createdAt,value
2018-12-09T00:00:01.769Z,985.83
2018-12-09T00:01:01.784Z,985.84
2018-12-09T00:02:01.800Z,985.76
2018-12-09T00:03:01.817Z,985.77
2018-12-09T00:04:01.833Z,985.66
2018-12-09T00:05:01.851Z,985.80
2018-12-09T00:06:01.866Z,985.60
2018-12-09T00:07:01.881Z,985.68
2018-12-09T00:08:01.895Z,985.59
2018-12-09T00:09:01.913Z,985.66
2018-12-09T00:10:01.977Z,985.65
2018-12-09T00:11:01.942Z,985.66
2018-12-09T00:12:01.961Z,985.64
2018-12-09T00:13:01.978Z,985.68
2018-12-09T00:14:01.994Z,985.77
2018-12-09T00:15:02.007Z,985.71
2018-12-09T00:16:02.024Z,985.67
2018-12-09T00:17:02.038Z,985.66
2018-12-09T00:18:02.057Z,985.69
2018-12-09T00:19:02.072Z,985.73
2018-12-09T00:20:02.089Z,985.70
2018-12-09T00:21:02.102Z,985.71
2018-12-09T00:22:02.117Z,985.73
2018-12-09T00:23:02.137Z,985.77
2018-12-09T00:24:02.153Z,985.69
2018-12-09T00:25:02.166Z,985.64
2018-12-09T00:26:02.183Z,985.62
2018-12-09T00:27:02.196Z,985.75
2018-12-09T00:28:02.212Z,985.77
2018-12-09T00:29:02.229Z,985.82
2018-12-09T00:30:02.247Z,985.95
2018-12-09T00:31:02.263Z,985.83
2018-12-09T00:32:02.280Z,985.91
2018-12-09T00:33:02.297Z,985.66
2018-12-09T00:34:02.312Z,985.72
2018-12-09T00:35:02.328Z,985.58
2018-12-09T00:36:02.341Z,985.61
2018-12-09T00:37:02.356Z,985.63
2018-12-09T00:38:02.376Z,985.58
2018-12-09T00:39:02.390Z,985.52
2018-12-09T00:40:02.403Z,985.53
2018-12-09T00:41:02.422Z,985.45
2018-12-09T00:42:02.436Z,985.52
2018-12-09T00:43:02.453Z,985.51
2018-12-09T00:44:02.469Z,985.49
2018-12-09T00:45:02.487Z,985.50
2018-12-09T00:46:02.500Z,985.51
2018-12-09T00:47:02.565Z,985.57
2018-12-09T00:48:02.532Z,985.58
2018-12-09T00:49:02.550Z,985.56
2018-12-09T00:50:02.564Z,985.57
2018-12-09T00:51:02.579Z,985.60
2018-12-09T00:52:02.599Z,985.61
2018-12-09T00:53:02.615Z,985.66
2018-12-09T00:54:02.627Z,985.62
2018-12-09T00:55:02.645Z,985.65
2018-12-09T00:56:02.661Z,985.62
2018-12-09T00:57:02.675Z,985.64
2018-12-09T00:58:02.694Z,985.62
2018-12-09T00:59:02.707Z,985.65
2018-12-09T01:00:02.729Z,985.61
2018-12-09T01:01:02.742Z,985.57
2018-12-09T01:02:02.756Z,985.58
2018-12-09T01:03:02.773Z,985.55
2018-12-09T01:04:02.790Z,985.42
2018-12-09T01:05:02.804Z,985.64
2018-12-09T01:06:02.824Z,985.47
2018-12-09T01:07:02.839Z,985.57
2018-12-09T01:08:02.852Z,985.52
2018-12-09T01:09:02.871Z,985.53
2018-12-09T01:10:02.889Z,985.55
2018-12-09T01:11:02.901Z,985.50
2018-12-09T01:12:02.922Z,985.53
2018-12-09T01:13:02.936Z,985.52
2018-12-09T01:14:02.950Z,985.48
2018-12-09T01:15:02.966Z,985.55
2018-12-09T01:16:02.982Z,985.56
2018-12-09T01:17:02.999Z,985.60
2018-12-09T01:18:03.016Z,985.54
2018-12-09T01:19:03.030Z,985.57
2018-12-09T01:20:03.051Z,985.53
2018-12-09T01:21:03.067Z,985.62
2018-12-09T01:22:03.081Z,985.62
2018-12-09T01:23:03.099Z,985.68
2018-12-09T01:24:03.116Z,985.63
2018-12-09T01:25:03.129Z,985.71
2018-12-09T01:26:03.147Z,985.62
2018-12-09T01:27:03.165Z,985.70
2018-12-09T01:28:03.178Z,985.70
2018-12-09T01:29:03.194Z,985.72
2018-12-09T01:30:03.210Z,985.82
2018-12-09T01:31:03.229Z,985.82
2018-12-09T01:32:03.245Z,985.72
2018-12-09T01:33:03.261Z,985.75
2018-12-09T01:34:03.276Z,985.67
2018-12-09T01:35:03.291Z,985.66
2018-12-09T01:36:03.310Z,985.72
2018-12-09T01:37:03.327Z,985.75
2018-12-09T01:38:03.344Z,985.72
2018-12-09T01:39:03.358Z,985.77
2018-12-09T01:40:03.375Z,985.82
2018-12-09T01:41:03.392Z,985.89
2018-12-09T01:42:03.456Z,985.78
2018-12-09T01:43:03.422Z,985.73
2018-12-09T01:44:03.441Z,985.92
2018-12-09T01:45:03.457Z,985.89
2018-12-09T01:46:03.474Z,985.84
2018-12-09T01:47:03.488Z,985.87
2018-12-09T01:48:03.507Z,985.88
2018-12-09T01:49:03.523Z,985.81
2018-12-09T01:50:03.540Z,985.87
2018-12-09T01:51:03.553Z,985.90
2018-12-09T01:52:03.572Z,985.92
2018-12-09T01:53:03.840Z,985.95
2018-12-09T01:54:03.603Z,985.95
2018-12-09T01:55:03.619Z,985.93
2018-12-09T01:56:03.638Z,985.89
2018-12-09T01:57:03.654Z,985.90
2018-12-09T01:58:03.670Z,985.90
2018-12-09T01:59:03.684Z,985.89
2018-12-09T02:00:03.701Z,985.94
2018-12-09T02:01:03.720Z,985.92
2018-12-09T02:02:03.737Z,985.89
2018-12-09T02:05:03.784Z,985.92
2018-12-09T02:06:03.803Z,985.93
2018-12-09T02:07:03.817Z,985.94
2018-12-09T02:08:03.835Z,985.99
2018-12-09T02:09:03.853Z,986.13
2018-12-09T02:10:03.871Z,985.94
2018-12-09T02:11:03.883Z,986.03
2018-12-09T02:12:03.901Z,986.09
2018-12-09T02:13:03.919Z,986.00
2018-12-09T02:14:03.933Z,986.09
2018-12-09T02:15:03.950Z,986.08
2018-12-09T02:16:04.062Z,986.07
2018-12-09T02:17:03.982Z,986.03
2018-12-09T02:18:03.999Z,986.08
2018-12-09T02:19:04.014Z,986.14
2018-12-09T02:20:04.031Z,986.17
2018-12-09T02:21:04.048Z,986.16
2018-12-09T02:22:04.067Z,986.16
2018-12-09T02:23:04.080Z,986.27
2018-12-09T02:24:04.108Z,986.23
2018-12-09T02:25:04.117Z,986.21
2018-12-09T02:26:04.131Z,986.23
2018-12-09T02:27:04.147Z,986.26
2018-12-09T02:28:04.165Z,986.21
2018-12-09T02:29:04.184Z,986.23
2018-12-09T02:30:04.198Z,986.23
2018-12-09T02:31:04.213Z,986.26
2018-12-09T02:32:04.232Z,986.27
2018-12-09T02:33:04.249Z,986.29
2018-12-09T02:34:04.266Z,986.27
2018-12-09T02:35:04.283Z,986.24
2018-12-09T02:36:04.306Z,986.31
2018-12-09T02:37:04.316Z,986.36
2018-12-09T02:38:04.334Z,986.29
2018-12-09T02:39:04.449Z,986.34
2018-12-09T02:40:04.369Z,986.37
2018-12-09T02:41:04.385Z,986.32
2018-12-09T02:42:04.398Z,986.34
2018-12-09T02:43:04.413Z,986.37
2018-12-09T02:44:04.432Z,986.32
2018-12-09T02:45:04.452Z,986.32
2018-12-09T02:46:04.467Z,986.37
2018-12-09T02:47:04.485Z,986.36
2018-12-09T02:48:04.499Z,986.44
2018-12-09T02:49:04.514Z,986.38
2018-12-09T02:50:04.533Z,986.40
2018-12-09T02:51:04.547Z,986.38
2018-12-09T02:52:04.566Z,986.39
2018-12-09T02:53:04.581Z,986.30
2018-12-09T02:54:04.598Z,986.35
2018-12-09T02:55:04.614Z,986.32
2018-12-09T02:56:04.633Z,986.35
2018-12-09T02:57:04.650Z,986.45
2018-12-09T02:58:04.679Z,986.27
2018-12-09T02:59:04.689Z,986.29
2018-12-09T03:00:04.700Z,986.29
2018-12-09T03:01:04.718Z,986.30
2018-12-09T03:02:04.735Z,986.36
2018-12-09T03:03:04.748Z,986.35
2018-12-09T03:04:04.776Z,986.32
2018-12-09T03:05:04.791Z,986.32
2018-12-09T03:06:04.802Z,986.37
2018-12-09T03:07:04.817Z,986.40
2018-12-09T03:08:04.832Z,986.36
2018-12-09T03:09:04.849Z,986.29
2018-12-09T03:10:04.866Z,986.41
2018-12-09T03:11:04.884Z,986.28
2018-12-09T03:12:04.901Z,986.34
2018-12-09T03:13:04.916Z,986.30
2018-12-09T03:14:04.935Z,986.31
2018-12-09T03:15:05.005Z,986.27
2018-12-09T03:16:04.968Z,986.24
2018-12-09T03:17:04.983Z,986.27
2018-12-09T03:18:05.000Z,986.29
2018-12-09T03:19:05.022Z,986.32
2018-12-09T03:20:05.033Z,986.30
2018-12-09T03:21:05.049Z,986.41
2018-12-09T03:22:05.068Z,986.35
2018-12-09T03:23:05.084Z,986.33
2018-12-09T03:24:05.099Z,986.41
2018-12-09T03:25:05.116Z,986.45
2018-12-09T03:26:05.137Z,986.38
2018-12-09T03:27:05.149Z,986.42
2018-12-09T03:28:05.168Z,986.38
2018-12-09T03:29:05.183Z,986.45
2018-12-09T03:30:05.200Z,986.45
2018-12-09T03:31:05.246Z,986.40
2018-12-09T03:32:05.246Z,986.39
2018-12-09T03:33:05.255Z,986.48
2018-12-09T03:34:05.269Z,986.45
2018-12-09T03:35:05.283Z,986.47
2018-12-09T03:36:05.304Z,986.43
2018-12-09T03:37:05.317Z,986.48
2018-12-09T03:38:05.336Z,986.43
2018-12-09T03:39:05.361Z,986.42
2018-12-09T03:40:05.382Z,986.41
2018-12-09T03:41:05.388Z,986.40
2018-12-09T03:42:05.403Z,986.51
2018-12-09T03:43:05.418Z,986.51
2018-12-09T03:44:05.433Z,986.46
2018-12-09T03:45:05.451Z,986.49
2018-12-09T03:46:05.468Z,986.58
2018-12-09T03:47:05.487Z,986.58
2018-12-09T03:48:05.501Z,986.63
2018-12-09T03:49:05.519Z,986.68
2018-12-09T03:50:05.536Z,986.59
2018-12-09T03:51:05.550Z,986.69
2018-12-09T03:52:05.569Z,986.59
2018-12-09T03:53:05.584Z,986.61
2018-12-09T03:54:05.603Z,986.70
2018-12-09T03:55:05.618Z,986.65
2018-12-09T03:56:05.638Z,986.67
2018-12-09T03:57:05.649Z,986.71
2018-12-09T03:58:05.669Z,986.65
2018-12-09T03:59:05.683Z,986.63
2018-12-09T04:00:05.700Z,986.59
2018-12-09T04:01:05.716Z,986.68
2018-12-09T04:02:05.732Z,986.65
2018-12-09T04:03:05.757Z,986.63
2018-12-09T04:04:05.774Z,986.57
2018-12-09T04:05:05.780Z,986.59
2018-12-09T04:06:05.798Z,986.64
2018-12-09T04:07:05.816Z,986.60
2018-12-09T04:08:05.830Z,986.61
2018-12-09T04:09:05.847Z,986.65
2018-12-09T04:10:05.872Z,986.62
2018-12-09T04:11:05.878Z,986.67
2018-12-09T04:12:05.894Z,986.62
2018-12-09T04:13:05.911Z,986.68
2018-12-09T04:14:05.930Z,986.72
2018-12-09T04:15:05.944Z,986.72
2018-12-09T04:16:05.960Z,986.70
2018-12-09T04:17:05.977Z,986.70
2018-12-09T04:18:05.999Z,986.68
2018-12-09T04:19:06.009Z,986.69
2018-12-09T04:20:06.033Z,986.66
2018-12-09T04:21:06.045Z,986.72
2018-12-09T04:22:06.067Z,986.71
2018-12-09T04:23:06.075Z,986.71
2018-12-09T04:24:06.094Z,986.62
2018-12-09T04:25:06.109Z,986.49
2018-12-09T04:26:06.125Z,986.51
2018-12-09T04:27:06.141Z,986.60
2018-12-09T04:28:06.160Z,986.64
2018-12-09T04:29:06.173Z,986.62
2018-12-09T04:30:06.193Z,986.72
2018-12-09T04:31:06.205Z,986.71
2018-12-09T04:32:06.226Z,986.81
2018-12-09T04:33:06.240Z,986.71
2018-12-09T04:34:06.259Z,986.78
2018-12-09T04:35:06.270Z,986.75
2018-12-09T04:36:06.289Z,986.79
2018-12-09T04:37:06.303Z,986.68
2018-12-09T04:38:06.321Z,986.82
2018-12-09T04:39:06.337Z,986.82
2018-12-09T04:40:06.650Z,986.86
2018-12-09T04:41:06.371Z,986.75
2018-12-09T04:42:06.387Z,986.80
2018-12-09T04:43:06.401Z,986.77
2018-12-09T04:44:06.421Z,986.73
2018-12-09T04:45:06.433Z,986.87
2018-12-09T04:46:06.453Z,986.72
2018-12-09T04:47:06.467Z,986.80
2018-12-09T04:48:06.485Z,986.80
2018-12-09T04:49:06.499Z,986.90
2018-12-09T04:50:06.517Z,986.90
2018-12-09T04:51:06.535Z,987.02
2018-12-09T04:52:06.547Z,986.93
2018-12-09T04:53:06.563Z,986.90
2018-12-09T04:54:06.583Z,986.88
2018-12-09T04:55:06.596Z,986.93
2018-12-09T04:56:06.614Z,986.88
2018-12-09T04:57:06.628Z,986.86
2018-12-09T04:58:06.647Z,986.84
2018-12-09T04:59:06.661Z,986.95
2018-12-09T05:00:06.681Z,986.94
2018-12-09T05:01:06.694Z,986.99
2018-12-09T05:02:06.713Z,986.96
2018-12-09T05:03:06.729Z,986.91
2018-12-09T05:04:06.748Z,986.89
2018-12-09T05:05:06.763Z,986.97
2018-12-09T05:06:06.778Z,986.98
2018-12-09T05:07:06.793Z,987.06
2018-12-09T05:08:06.810Z,987.11
2018-12-09T05:09:06.827Z,986.97
2018-12-09T05:10:06.842Z,987.02
2018-12-09T05:11:06.857Z,987.01
2018-12-09T05:12:06.874Z,987.07
2018-12-09T05:13:06.891Z,987.03
2018-12-09T05:14:06.992Z,987.01
2018-12-09T05:15:06.924Z,987.01
2018-12-09T05:16:06.942Z,987.02
2018-12-09T05:17:06.956Z,987.06
2018-12-09T05:18:06.974Z,987.15
2018-12-09T05:19:07.000Z,987.13
2018-12-09T05:20:07.005Z,987.16
2018-12-09T05:21:07.024Z,987.27
2018-12-09T05:22:07.043Z,987.16
2018-12-09T05:23:07.058Z,987.17
2018-12-09T05:24:07.073Z,987.14
2018-12-09T05:25:07.089Z,987.16
2018-12-09T05:26:07.106Z,987.19
2018-12-09T05:27:07.123Z,987.20
2018-12-09T05:28:07.139Z,987.24
2018-12-09T05:29:07.154Z,987.16
2018-12-09T05:30:07.171Z,987.22
2018-12-09T05:31:07.188Z,987.26
2018-12-09T05:32:07.205Z,987.28
2018-12-09T05:33:07.221Z,987.26
2018-12-09T05:34:07.238Z,987.28
2018-12-09T05:35:07.252Z,987.25
2018-12-09T05:36:07.269Z,987.29
2018-12-09T05:37:07.292Z,987.22
2018-12-09T05:38:07.306Z,987.24
2018-12-09T05:39:07.318Z,987.28
2018-12-09T05:40:07.334Z,987.23
2018-12-09T05:41:07.353Z,987.25
2018-12-09T05:42:07.371Z,987.27
2018-12-09T05:43:07.387Z,987.27
2018-12-09T05:44:07.401Z,987.30
2018-12-09T05:45:07.419Z,987.33
2018-12-09T05:46:08.507Z,987.39
2018-12-09T05:47:07.453Z,987.35
2018-12-09T05:48:07.470Z,987.38
2018-12-09T05:49:07.487Z,987.33
2018-12-09T05:50:07.502Z,987.35
2018-12-09T05:51:07.516Z,987.38
2018-12-09T05:52:07.535Z,987.35
2018-12-09T05:53:07.550Z,987.40
2018-12-09T05:54:07.567Z,987.45
2018-12-09T05:55:07.584Z,987.48
2018-12-09T05:56:07.604Z,987.38
2018-12-09T05:57:07.619Z,987.36
2018-12-09T05:58:07.636Z,987.35
2018-12-09T05:59:07.652Z,987.34
2018-12-09T06:00:07.669Z,987.43
2018-12-09T06:01:07.686Z,987.52
2018-12-09T06:02:07.701Z,987.44
2018-12-09T06:03:07.716Z,987.52
2018-12-09T06:04:07.736Z,987.55
2018-12-09T06:05:07.755Z,987.54
2018-12-09T06:06:07.769Z,987.55
2018-12-09T06:07:07.783Z,987.55
2018-12-09T06:08:07.803Z,987.62
2018-12-09T06:09:07.821Z,987.54
2018-12-09T06:10:07.837Z,987.56
2018-12-09T06:11:07.854Z,987.56
2018-12-09T06:12:07.874Z,987.62
2018-12-09T06:13:07.886Z,987.55
2018-12-09T06:14:07.903Z,987.55
2018-12-09T06:15:07.916Z,987.60
2018-12-09T06:16:07.934Z,987.62
2018-12-09T06:17:07.952Z,987.53
2018-12-09T06:18:07.970Z,987.61
2018-12-09T06:19:07.984Z,987.59
2018-12-09T06:20:08.000Z,987.60
2018-12-09T06:21:08.018Z,987.65
2018-12-09T06:22:08.038Z,987.65
2018-12-09T06:23:08.051Z,987.65
2018-12-09T06:24:08.074Z,987.63
2018-12-09T06:25:08.097Z,987.62
2018-12-09T06:26:08.116Z,987.65
2018-12-09T06:27:08.120Z,987.70
2018-12-09T06:28:08.134Z,987.71
2018-12-09T06:29:08.150Z,987.73
2018-12-09T06:30:08.167Z,987.69
2018-12-09T06:31:08.182Z,987.68
2018-12-09T06:32:08.202Z,987.73
2018-12-09T06:33:08.217Z,987.75
2018-12-09T06:34:08.240Z,987.75
2018-12-09T06:35:08.249Z,987.74
2018-12-09T06:36:08.269Z,987.74
2018-12-09T06:37:08.286Z,987.70
2018-12-09T06:38:08.300Z,987.71
2018-12-09T06:39:08.397Z,987.73
2018-12-09T06:40:08.335Z,987.76
2018-12-09T06:41:08.351Z,987.74
2018-12-09T06:42:08.368Z,987.78
2018-12-09T06:43:08.385Z,987.69
2018-12-09T06:44:08.401Z,987.69
2018-12-09T06:45:08.415Z,987.67
2018-12-09T06:46:08.435Z,987.69
2018-12-09T06:47:08.448Z,987.76
2018-12-09T06:48:08.466Z,987.78
2018-12-09T06:49:08.483Z,987.81
2018-12-09T06:50:08.498Z,987.75
2018-12-09T06:51:08.514Z,987.74
2018-12-09T06:52:08.533Z,987.82
2018-12-09T06:53:08.550Z,987.74
2018-12-09T06:54:08.564Z,987.82
2018-12-09T06:55:08.582Z,987.87
2018-12-09T06:56:08.597Z,987.84
2018-12-09T06:57:08.614Z,987.94
2018-12-09T06:58:08.633Z,987.94
2018-12-09T06:59:08.650Z,987.87
2018-12-09T07:00:08.666Z,987.94
2018-12-09T07:01:08.683Z,988.01
2018-12-09T07:02:08.700Z,987.97
2018-12-09T07:03:08.712Z,987.97
2018-12-09T07:04:08.732Z,987.88
2018-12-09T07:05:08.747Z,987.97
2018-12-09T07:06:08.765Z,988.08
2018-12-09T07:07:08.779Z,987.97
2018-12-09T07:08:08.795Z,987.96
2018-12-09T07:09:08.815Z,987.98
2018-12-09T07:10:08.829Z,988.02
2018-12-09T07:11:08.847Z,988.04
2018-12-09T07:12:08.861Z,988.10
2018-12-09T07:13:08.880Z,988.02
2018-12-09T07:14:08.897Z,988.03
2018-12-09T07:15:08.974Z,988.13
2018-12-09T07:16:09.047Z,988.14
2018-12-09T07:17:08.948Z,988.22
2018-12-09T07:18:08.962Z,988.15
2018-12-09T07:19:08.979Z,988.23
2018-12-09T07:20:08.997Z,988.22
2018-12-09T07:21:09.013Z,988.15
2018-12-09T07:22:09.030Z,988.13
2018-12-09T07:23:09.044Z,988.24
2018-12-09T07:24:09.063Z,988.23
2018-12-09T07:25:09.078Z,988.15
2018-12-09T07:26:09.097Z,988.29
2018-12-09T07:27:09.112Z,988.21
2018-12-09T07:28:09.127Z,988.33
2018-12-09T07:29:09.144Z,988.35
2018-12-09T07:30:09.161Z,988.32
2018-12-09T07:31:09.180Z,988.37
2018-12-09T07:32:09.196Z,988.36
2018-12-09T07:33:09.212Z,988.42
2018-12-09T07:34:09.229Z,988.37
2018-12-09T07:35:09.248Z,988.45
2018-12-09T07:36:09.260Z,988.37
2018-12-09T07:37:09.277Z,988.35
2018-12-09T07:38:09.294Z,988.34
2018-12-09T07:39:09.313Z,988.41
2018-12-09T07:40:09.327Z,988.47
2018-12-09T07:41:09.346Z,988.45
2018-12-09T07:42:09.361Z,988.55
2018-12-09T07:43:09.378Z,988.49
2018-12-09T07:44:09.395Z,988.70
2018-12-09T07:45:09.412Z,988.64
2018-12-09T07:46:09.431Z,988.64
2018-12-09T07:47:09.445Z,988.66
2018-12-09T07:48:09.462Z,988.68
2018-12-09T07:49:09.479Z,988.67
2018-12-09T07:50:09.493Z,988.83
2018-12-09T07:51:09.510Z,988.77
2018-12-09T07:52:09.528Z,988.89
2018-12-09T07:53:09.545Z,989.00
2018-12-09T07:54:09.560Z,989.05
2018-12-09T07:55:09.578Z,989.18
2018-12-09T07:56:09.694Z,989.03
2018-12-09T07:57:09.609Z,989.12
2018-12-09T07:58:09.628Z,989.10
2018-12-09T07:59:09.641Z,989.13
2018-12-09T08:00:09.658Z,989.22
2018-12-09T08:01:09.675Z,989.16
2018-12-09T08:02:09.694Z,989.15
2018-12-09T08:03:09.711Z,989.35
2018-12-09T08:04:09.726Z,989.31
2018-12-09T08:05:09.742Z,989.38
2018-12-09T08:06:09.759Z,989.43
2018-12-09T08:07:09.773Z,989.58
2018-12-09T08:08:09.793Z,989.60
2018-12-09T08:09:09.806Z,989.58
2018-12-09T08:10:09.822Z,989.65
2018-12-09T08:11:09.840Z,989.68
2018-12-09T08:12:09.856Z,989.71
2018-12-09T08:13:09.873Z,989.69
2018-12-09T08:14:09.889Z,989.71
2018-12-09T08:15:10.004Z,989.77
2018-12-09T08:16:09.925Z,989.71
2018-12-09T08:17:09.939Z,989.87
2018-12-09T08:18:09.953Z,989.84
2018-12-09T08:19:09.971Z,989.78
2018-12-09T08:20:09.986Z,989.85
2018-12-09T08:21:09.999Z,989.81
2018-12-09T08:22:10.018Z,989.78
2018-12-09T08:23:10.031Z,989.84
2018-12-09T08:24:10.048Z,989.82
2018-12-09T08:25:10.065Z,989.89
2018-12-09T08:26:10.131Z,989.91
2018-12-09T08:27:10.094Z,989.99
2018-12-09T08:28:10.112Z,989.93
2018-12-09T08:29:10.126Z,989.89
2018-12-09T08:30:10.142Z,989.83
2018-12-09T08:31:10.160Z,989.75
2018-12-09T08:32:10.173Z,989.88
2018-12-09T08:33:10.192Z,989.88
2018-12-09T08:34:10.207Z,989.88
2018-12-09T08:35:10.220Z,989.92
2018-12-09T08:36:10.239Z,989.93
2018-12-09T08:37:10.252Z,989.95
2018-12-09T08:38:10.273Z,989.97
2018-12-09T08:39:10.286Z,989.98
2018-12-09T08:40:10.299Z,989.99
2018-12-09T08:41:10.317Z,990.03
2018-12-09T08:42:10.334Z,990.01
2018-12-09T08:43:10.347Z,989.99
2018-12-09T08:44:10.365Z,990.01
2018-12-09T08:45:10.382Z,989.97
2018-12-09T08:46:10.397Z,989.97
2018-12-09T08:47:10.410Z,989.97
2018-12-09T08:48:10.426Z,990.01
2018-12-09T08:49:10.444Z,990.01
2018-12-09T08:50:10.460Z,989.96
2018-12-09T08:51:10.476Z,989.98
2018-12-09T08:52:10.492Z,990.06
2018-12-09T08:53:10.509Z,990.08
2018-12-09T08:54:10.521Z,990.12
2018-12-09T08:55:10.539Z,990.12
2018-12-09T08:56:10.553Z,990.12
2018-12-09T08:57:10.574Z,990.13
2018-12-09T08:58:10.585Z,990.14
2018-12-09T08:59:10.600Z,990.15
2018-12-09T09:00:10.621Z,990.19
2018-12-09T09:01:10.636Z,990.20
2018-12-09T09:02:10.652Z,990.24
2018-12-09T09:03:10.665Z,990.26
2018-12-09T09:04:10.684Z,990.27
2018-12-09T09:05:10.696Z,990.28
2018-12-09T09:06:10.712Z,990.34
2018-12-09T09:07:10.727Z,990.34
2018-12-09T09:08:10.743Z,990.38
2018-12-09T09:09:10.760Z,990.43
2018-12-09T09:10:10.776Z,990.47
2018-12-09T09:11:10.793Z,990.49
2018-12-09T09:12:10.830Z,990.51
2018-12-09T09:13:10.825Z,990.55
2018-12-09T09:14:10.842Z,990.52
2018-12-09T09:15:10.857Z,990.56
2018-12-09T09:16:10.872Z,990.63
2018-12-09T09:17:10.890Z,990.59
2018-12-09T09:18:10.904Z,990.67
2018-12-09T09:19:11.023Z,990.67
2018-12-09T09:20:10.935Z,990.61
2018-12-09T09:21:10.952Z,990.66
2018-12-09T09:22:10.974Z,990.67
2018-12-09T09:23:11.737Z,990.70
2018-12-09T09:24:11.000Z,990.66
2018-12-09T09:25:11.017Z,990.70
2018-12-09T09:26:11.036Z,990.72
2018-12-09T09:27:11.055Z,990.75
2018-12-09T09:28:11.067Z,990.79
2018-12-09T09:29:11.083Z,990.82
2018-12-09T09:30:11.098Z,990.86
2018-12-09T09:31:11.113Z,990.81
2018-12-09T09:32:11.130Z,990.82
2018-12-09T09:33:11.148Z,990.87
2018-12-09T09:34:11.163Z,990.89
2018-12-09T09:35:11.177Z,990.90
2018-12-09T09:36:11.195Z,990.94
2018-12-09T09:37:11.215Z,990.96
2018-12-09T09:38:11.228Z,990.96
2018-12-09T09:39:11.242Z,990.91
2018-12-09T09:40:11.257Z,990.93
2018-12-09T09:41:11.282Z,990.92
2018-12-09T09:42:11.293Z,990.90
2018-12-09T09:43:11.306Z,990.92
2018-12-09T09:44:11.323Z,990.95
2018-12-09T09:45:11.341Z,990.94
2018-12-09T09:46:11.354Z,990.93
2018-12-09T09:47:11.373Z,991.04
2018-12-09T09:48:11.387Z,991.04
2018-12-09T09:49:11.403Z,991.01
2018-12-09T09:50:12.181Z,991.02
2018-12-09T09:51:11.436Z,991.00
2018-12-09T09:52:11.451Z,991.00
2018-12-09T09:53:11.468Z,991.04
2018-12-09T09:54:11.485Z,991.01
2018-12-09T09:55:11.502Z,991.01
2018-12-09T09:56:11.516Z,990.98
2018-12-09T09:57:11.541Z,991.03
2018-12-09T09:58:11.548Z,991.06
2018-12-09T09:59:11.567Z,991.11
2018-12-09T10:00:11.580Z,991.08
2018-12-09T10:01:11.596Z,991.14
2018-12-09T10:02:11.615Z,991.12
2018-12-09T10:03:11.631Z,991.17
2018-12-09T10:04:11.645Z,991.11
2018-12-09T10:05:11.661Z,991.17
2018-12-09T10:06:11.677Z,991.20
2018-12-09T10:07:11.692Z,991.16
2018-12-09T10:08:11.709Z,991.19
2018-12-09T10:09:11.728Z,991.20
2018-12-09T10:10:11.741Z,991.21
2018-12-09T10:11:11.757Z,991.25
2018-12-09T10:12:11.773Z,991.24
2018-12-09T10:13:11.789Z,991.26
2018-12-09T10:14:11.813Z,991.27
2018-12-09T10:15:11.867Z,991.35
2018-12-09T10:16:11.839Z,991.35
2018-12-09T10:17:11.858Z,991.31
2018-12-09T10:18:11.921Z,991.38
2018-12-09T10:19:11.886Z,991.41
2018-12-09T10:20:11.904Z,991.46
2018-12-09T10:21:11.921Z,991.41
2018-12-09T10:22:11.936Z,991.41
2018-12-09T10:23:11.952Z,991.41
2018-12-09T10:24:11.967Z,991.40
2018-12-09T10:25:11.984Z,991.44
2018-12-09T10:26:12.103Z,991.43
2018-12-09T10:27:12.017Z,991.44
2018-12-09T10:28:12.032Z,991.47
2018-12-09T10:29:12.052Z,991.45
2018-12-09T10:30:12.067Z,991.50
2018-12-09T10:31:12.081Z,991.50
2018-12-09T10:32:12.100Z,991.55
2018-12-09T10:33:12.117Z,991.54
2018-12-09T10:34:12.130Z,991.54
2018-12-09T10:35:12.146Z,991.56
2018-12-09T10:36:12.162Z,991.57
2018-12-09T10:37:12.179Z,991.57
2018-12-09T10:38:12.197Z,991.59
2018-12-09T10:39:12.214Z,991.64
2018-12-09T10:40:12.228Z,991.63
2018-12-09T10:41:12.243Z,991.66
2018-12-09T10:42:12.259Z,991.68
2018-12-09T10:43:12.278Z,991.65
2018-12-09T10:44:12.294Z,991.69
2018-12-09T10:45:12.308Z,991.67
2018-12-09T10:46:12.427Z,991.72
2018-12-09T10:47:12.339Z,991.72
2018-12-09T10:48:12.357Z,991.70
2018-12-09T10:49:12.373Z,991.74
2018-12-09T10:50:12.392Z,991.73
2018-12-09T10:51:12.404Z,991.74
2018-12-09T10:52:12.423Z,991.74
2018-12-09T10:53:12.437Z,991.77
2018-12-09T10:54:12.456Z,991.82
2018-12-09T10:55:12.472Z,991.80
2018-12-09T10:56:12.488Z,991.83
2018-12-09T10:57:12.504Z,991.82
2018-12-09T10:58:12.518Z,991.85
2018-12-09T10:59:12.534Z,991.86
2018-12-09T11:00:12.550Z,991.89
2018-12-09T11:01:12.567Z,991.91
2018-12-09T11:02:12.584Z,991.87
2018-12-09T11:03:12.601Z,991.86
2018-12-09T11:04:12.618Z,991.89
2018-12-09T11:05:12.632Z,991.86
2018-12-09T11:06:12.649Z,991.85
2018-12-09T11:07:12.664Z,991.91
2018-12-09T11:08:12.686Z,991.94
2018-12-09T11:09:12.697Z,991.96
2018-12-09T11:10:12.717Z,991.92
2018-12-09T11:11:12.731Z,991.91
2018-12-09T11:12:12.746Z,991.86
2018-12-09T11:13:12.764Z,991.91
2018-12-09T11:14:12.781Z,991.94
2018-12-09T11:15:12.795Z,991.97
2018-12-09T11:16:12.813Z,992.00
2018-12-09T11:17:12.828Z,991.99
2018-12-09T11:18:12.845Z,992.03
2018-12-09T11:19:12.862Z,992.06
2018-12-09T11:20:12.877Z,992.12
2018-12-09T11:21:12.893Z,992.09
2018-12-09T11:22:12.913Z,992.09
2018-12-09T11:23:12.929Z,992.02
2018-12-09T11:24:12.945Z,992.06
2018-12-09T11:25:12.967Z,992.06
2018-12-09T11:26:12.976Z,992.06
2018-12-09T11:27:12.991Z,992.09
2018-12-09T11:28:13.011Z,992.05
2018-12-09T11:29:13.025Z,992.05
2018-12-09T11:30:13.041Z,992.09
2018-12-09T11:31:13.057Z,992.11
2018-12-09T11:32:13.075Z,992.10
2018-12-09T11:33:13.092Z,992.11
2018-12-09T11:34:13.106Z,992.17
2018-12-09T11:35:13.130Z,992.18
2018-12-09T11:36:13.147Z,992.14
2018-12-09T11:37:13.160Z,992.21
2018-12-09T11:38:13.185Z,992.23
2018-12-09T11:39:13.190Z,992.25
2018-12-09T11:40:13.206Z,992.25
2018-12-09T11:41:13.224Z,992.29
2018-12-09T11:42:13.240Z,992.27
2018-12-09T11:43:13.256Z,992.28
2018-12-09T11:44:13.272Z,992.30
2018-12-09T11:45:13.290Z,992.29
2018-12-09T11:46:13.306Z,992.34
2018-12-09T11:47:13.319Z,992.31
2018-12-09T11:48:13.338Z,992.32
2018-12-09T11:49:13.354Z,992.29
2018-12-09T11:50:13.371Z,992.39
2018-12-09T11:53:13.422Z,992.36
2018-12-09T11:54:13.436Z,992.39
2018-12-09T11:55:13.457Z,992.36
2018-12-09T11:56:13.471Z,992.40
2018-12-09T11:57:13.486Z,992.43
2018-12-09T11:58:13.504Z,992.45
2018-12-09T11:59:13.517Z,992.37
2018-12-09T12:00:13.535Z,992.44
2018-12-09T12:01:13.550Z,992.46
2018-12-09T12:02:20.039Z,992.48
2018-12-09T12:03:13.587Z,992.50
2018-12-09T12:04:13.602Z,992.52
2018-12-09T12:05:13.621Z,992.50
2018-12-09T12:06:13.634Z,992.49
2018-12-09T12:07:13.656Z,992.50
2018-12-09T12:08:13.666Z,992.52
2018-12-09T12:09:13.682Z,992.58
2018-12-09T12:10:13.702Z,992.54
2018-12-09T12:11:13.717Z,992.60
2018-12-09T12:12:13.739Z,992.62
2018-12-09T12:13:13.751Z,992.62
2018-12-09T12:14:13.766Z,992.62
2018-12-09T12:15:13.784Z,992.64
2018-12-09T12:16:13.802Z,992.66
2018-12-09T12:17:13.817Z,992.64
2018-12-09T12:18:13.833Z,992.63
2018-12-09T12:19:13.848Z,992.67
2018-12-09T12:20:13.868Z,992.66
2018-12-09T12:21:13.884Z,992.69
2018-12-09T12:22:13.900Z,992.71
2018-12-09T12:23:13.916Z,992.71
2018-12-09T12:24:13.934Z,992.63
2018-12-09T12:25:13.950Z,992.67
2018-12-09T12:26:13.965Z,992.67
2018-12-09T12:27:13.981Z,992.71
2018-12-09T12:28:14.001Z,992.70
2018-12-09T12:29:14.018Z,992.78
2018-12-09T12:30:14.034Z,992.78
2018-12-09T12:31:14.050Z,992.76
2018-12-09T12:32:14.065Z,992.76